createdAt,value
2019-04-14T00:00:43.367Z,1.1
2019-04-14T00:01:34.770Z,1.1
2019-04-14T00:02:25.734Z,1.1
2019-04-14T00:03:17.243Z,1.1
2019-04-14T00:04:09.433Z,1.1
2019-04-14T00:05:00.397Z,1.1
2019-04-14T00:05:51.698Z,1.1
2019-04-14T00:06:42.597Z,1.1
2019-04-14T00:07:34.033Z,1.2
2019-04-14T00:08:26.093Z,1.3
2019-04-14T00:09:18.266Z,1.3
2019-04-14T00:10:09.443Z,1.3
2019-04-14T00:11:00.359Z,1.3
2019-04-14T00:11:52.556Z,1.3
2019-04-14T00:12:44.764Z,1.3
2019-04-14T00:13:37.012Z,1.3
2019-04-14T00:14:29.084Z,1.2
2019-04-14T00:15:29.113Z,1.2
2019-04-14T00:16:16.338Z,1.2
2019-04-14T00:17:07.288Z,1.2
2019-04-14T00:17:58.939Z,1.2
2019-04-14T00:18:51.157Z,1.2
2019-04-14T00:19:43.145Z,1.2
2019-04-14T00:20:34.290Z,1.3
2019-04-14T00:21:26.064Z,1.3
2019-04-14T00:22:17.020Z,1.3
2019-04-14T00:23:08.755Z,1.3
2019-04-14T00:24:00.810Z,1.3
2019-04-14T00:24:51.718Z,1.3
2019-04-14T00:25:43.364Z,1.3
2019-04-14T00:26:35.495Z,1.3
2019-04-14T00:27:26.499Z,1.2
2019-04-14T00:28:18.293Z,1.2
2019-04-14T00:29:09.348Z,1.3
2019-04-14T00:30:01.112Z,1.3
2019-04-14T00:30:53.320Z,1.3
2019-04-14T00:31:45.222Z,1.3
2019-04-14T00:32:36.459Z,1.2
2019-04-14T00:33:28.068Z,1.3
2019-04-14T00:34:20.216Z,1.4
2019-04-14T00:35:12.367Z,1.4
2019-04-14T00:36:04.387Z,1.4
2019-04-14T00:36:56.546Z,1.5
2019-04-14T00:37:47.487Z,1.5
2019-04-14T00:38:39.087Z,1.4
2019-04-14T00:39:30.044Z,1.4
2019-04-14T00:40:21.523Z,1.5
2019-04-14T00:41:13.605Z,1.4
2019-04-14T00:42:05.292Z,1.4
2019-04-14T00:42:58.155Z,1.4
2019-04-14T00:43:49.107Z,1.4
2019-04-14T00:44:40.967Z,1.4
2019-04-14T00:45:41.429Z,1.4
2019-04-14T00:46:27.770Z,1.4
2019-04-14T00:47:19.918Z,1.4
2019-04-14T00:48:14.796Z,1.4
2019-04-14T00:49:07.029Z,1.4
2019-04-14T00:49:57.982Z,1.4
2019-04-14T00:50:49.566Z,1.4
2019-04-14T00:51:41.360Z,1.5
2019-04-14T00:52:34.027Z,1.5
2019-04-14T00:53:25.438Z,1.4
2019-04-14T00:54:17.285Z,1.4
2019-04-14T00:55:09.594Z,1.5
2019-04-14T00:56:01.822Z,1.5
2019-04-14T00:56:54.072Z,1.5
2019-04-14T00:57:45.975Z,1.5
2019-04-14T00:58:37.146Z,1.5
2019-04-14T00:59:29.009Z,1.5
2019-04-14T01:00:20.685Z,1.5
2019-04-14T01:01:13.285Z,1.5
2019-04-14T01:02:04.201Z,1.5
2019-04-14T01:02:55.744Z,1.5
2019-04-14T01:03:46.701Z,1.5
2019-04-14T01:04:38.271Z,1.5
2019-04-14T01:05:31.639Z,1.5
2019-04-14T01:06:24.977Z,1.5
2019-04-14T01:07:17.230Z,1.5
2019-04-14T01:08:09.521Z,1.5
2019-04-14T01:09:00.553Z,1.5
2019-04-14T01:09:51.420Z,1.5
2019-04-14T01:10:43.273Z,1.5
2019-04-14T01:11:34.207Z,1.5
2019-04-14T01:12:25.717Z,1.5
2019-04-14T01:13:17.762Z,1.5
2019-04-14T01:14:08.756Z,1.6
2019-04-14T01:15:00.610Z,1.6
2019-04-14T01:16:00.406Z,1.5
2019-04-14T01:16:47.418Z,1.5
2019-04-14T01:17:39.283Z,1.5
2019-04-14T01:18:30.413Z,1.6
2019-04-14T01:19:21.990Z,1.6
2019-04-14T01:20:12.933Z,1.6
2019-04-14T01:21:04.573Z,1.6
2019-04-14T01:21:56.630Z,1.5
2019-04-14T01:22:48.740Z,1.5
2019-04-14T01:23:39.772Z,1.5
2019-04-14T01:24:31.533Z,1.6
2019-04-14T01:25:22.498Z,1.6
2019-04-14T01:26:13.853Z,1.5
2019-04-14T01:27:05.930Z,1.5
2019-04-14T01:27:58.109Z,1.5
2019-04-14T01:28:50.322Z,1.5
2019-04-14T01:29:41.311Z,1.5
2019-04-14T01:30:32.694Z,1.5
2019-04-14T01:31:23.648Z,1.6
2019-04-14T01:32:15.405Z,1.5
2019-04-14T01:33:07.493Z,1.5
2019-04-14T01:33:59.679Z,1.5
2019-04-14T01:34:52.016Z,1.5
2019-04-14T01:35:44.334Z,1.5
2019-04-14T01:36:36.576Z,1.5
2019-04-14T01:37:27.535Z,1.5
2019-04-14T01:38:18.993Z,1.5
2019-04-14T01:39:11.056Z,1.6
2019-04-14T01:40:03.166Z,1.6
2019-04-14T01:40:55.235Z,1.6
2019-04-14T01:41:46.203Z,1.6
2019-04-14T01:42:37.707Z,1.5
2019-04-14T01:43:29.875Z,1.5
2019-04-14T01:44:21.980Z,1.5
2019-04-14T01:45:14.189Z,1.5
2019-04-14T01:46:14.194Z,1.5
2019-04-14T01:47:01.045Z,1.4
2019-04-14T01:47:53.222Z,1.4
2019-04-14T01:48:45.042Z,1.4
2019-04-14T01:49:36.235Z,1.4
2019-04-14T01:50:27.714Z,1.4
2019-04-14T01:51:18.614Z,1.4
2019-04-14T01:52:10.289Z,1.4
2019-04-14T01:53:01.218Z,1.4
2019-04-14T01:53:53.131Z,1.4
2019-04-14T01:54:45.270Z,1.4
2019-04-14T01:55:37.135Z,1.4
2019-04-14T01:56:29.433Z,1.4
2019-04-14T01:57:20.398Z,1.4
2019-04-14T01:58:12.197Z,1.4
2019-04-14T01:59:04.362Z,1.4
2019-04-14T01:59:55.327Z,1.4
2019-04-14T02:00:46.652Z,1.4
2019-04-14T02:01:38.865Z,1.5
2019-04-14T02:02:29.827Z,1.5
2019-04-14T02:03:21.681Z,1.5
2019-04-14T02:04:13.540Z,1.5
2019-04-14T02:05:05.962Z,1.5
2019-04-14T02:05:58.182Z,1.4
2019-04-14T02:06:55.185Z,1.4
2019-04-14T02:07:47.201Z,1.4
2019-04-14T02:08:39.269Z,1.4
2019-04-14T02:09:31.516Z,1.4
2019-04-14T02:10:23.740Z,1.5
2019-04-14T02:11:15.832Z,1.5
2019-04-14T02:12:06.789Z,1.5
2019-04-14T02:12:58.447Z,1.6
2019-04-14T02:13:50.701Z,1.5
2019-04-14T02:14:42.941Z,1.6
2019-04-14T02:15:35.171Z,1.6
2019-04-14T02:16:34.682Z,1.6
2019-04-14T02:17:22.080Z,1.6
2019-04-14T02:18:13.965Z,1.6
2019-04-14T02:19:05.150Z,1.6
2019-04-14T02:19:56.746Z,1.7
2019-04-14T02:20:48.914Z,1.7
2019-04-14T02:21:40.980Z,1.7
2019-04-14T02:22:33.342Z,1.7
2019-04-14T02:23:25.672Z,1.7
2019-04-14T02:24:17.795Z,1.7
2019-04-14T02:25:09.873Z,1.7
2019-04-14T02:26:02.143Z,1.7
2019-04-14T02:26:53.143Z,1.7
2019-04-14T02:27:45.049Z,1.7
2019-04-14T02:28:35.987Z,1.7
2019-04-14T02:29:27.598Z,1.8
2019-04-14T02:30:22.872Z,1.8
2019-04-14T02:31:29.533Z,1.8
2019-04-14T02:32:40.679Z,1.8
2019-04-14T02:33:44.022Z,1.8
2019-04-14T02:34:33.406Z,1.8
2019-04-14T02:35:27.686Z,1.8
2019-04-14T02:37:33.567Z,1.7
2019-04-14T02:38:33.268Z,1.8
2019-04-14T02:40:00.246Z,1.7
2019-04-14T02:41:02.170Z,1.8
2019-04-14T02:43:02.482Z,1.8
2019-04-14T02:43:47.382Z,1.8
2019-04-14T02:44:43.383Z,1.8
2019-04-14T02:46:38.041Z,1.8
2019-04-14T02:48:35.055Z,1.8
2019-04-14T02:49:18.244Z,1.8
2019-04-14T02:50:10.665Z,1.8
2019-04-14T02:51:12.171Z,1.8
2019-04-14T02:52:11.410Z,1.8
2019-04-14T02:53:07.212Z,1.8
2019-04-14T02:55:57.214Z,1.8
2019-04-14T02:57:09.494Z,1.8
2019-04-14T02:59:33.995Z,1.8
2019-04-14T03:00:31.008Z,1.8
2019-04-14T03:02:29.031Z,1.7
2019-04-14T03:03:21.371Z,1.7
2019-04-14T03:04:10.909Z,1.7
2019-04-14T03:06:05.076Z,1.7
2019-04-14T03:08:58.737Z,1.7
2019-04-14T03:09:46.484Z,1.8
2019-04-14T03:11:37.618Z,1.8
2019-04-14T03:14:30.258Z,1.8
2019-04-14T03:15:23.527Z,1.8
2019-04-14T03:16:21.494Z,1.8
2019-04-14T03:17:20.902Z,1.8
2019-04-14T03:18:23.743Z,1.8
2019-04-14T03:19:06.039Z,1.8
2019-04-14T03:20:54.277Z,1.8
2019-04-14T03:22:49.600Z,1.8
2019-04-14T03:23:48.316Z,1.8
2019-04-14T03:24:33.551Z,1.8
2019-04-14T03:25:27.530Z,1.8
2019-04-14T03:26:33.556Z,1.8
2019-04-14T03:27:30.249Z,1.8
2019-04-14T03:28:25.709Z,1.8
2019-04-14T03:29:20.455Z,1.8
2019-04-14T03:30:32.547Z,1.8
2019-04-14T03:35:03.177Z,1.8
2019-04-14T03:36:16.182Z,1.8
2019-04-14T03:40:33.480Z,1.8
2019-04-14T03:41:28.918Z,1.8
2019-04-14T03:42:28.439Z,1.8
2019-04-14T03:43:30.105Z,1.8
2019-04-14T03:44:16.479Z,1.8
2019-04-14T03:45:14.008Z,1.8
2019-04-14T03:46:08.988Z,1.8
2019-04-14T03:48:16.664Z,1.8
2019-04-14T03:49:44.507Z,1.7
2019-04-14T03:50:44.123Z,1.7
2019-04-14T03:51:44.217Z,1.7
2019-04-14T03:52:37.343Z,1.6
2019-04-14T03:54:19.956Z,1.6
2019-04-14T03:55:11.153Z,1.6
2019-04-14T03:55:58.264Z,1.6
2019-04-14T03:56:49.602Z,1.6
2019-04-14T03:57:41.175Z,1.6
2019-04-14T03:58:32.136Z,1.6
2019-04-14T03:59:24.001Z,1.6
2019-04-14T04:00:15.890Z,1.6
2019-04-14T04:01:06.806Z,1.6
2019-04-14T04:01:58.578Z,1.6
2019-04-14T04:02:49.519Z,1.6
2019-04-14T04:03:41.370Z,1.6
2019-04-14T04:04:33.634Z,1.6
2019-04-14T04:05:25.908Z,1.7
2019-04-14T04:06:17.925Z,1.8
2019-04-14T04:07:10.211Z,1.8
2019-04-14T04:08:01.194Z,1.8
2019-04-14T04:08:53.073Z,1.8
2019-04-14T04:09:44.032Z,1.8
2019-04-14T04:10:36.024Z,1.8
2019-04-14T04:11:27.916Z,1.8
2019-04-14T04:12:18.884Z,1.8
2019-04-14T04:13:10.519Z,1.8
2019-04-14T04:14:01.474Z,1.8
2019-04-14T04:14:53.114Z,1.9
2019-04-14T04:15:44.047Z,1.9
2019-04-14T04:16:35.500Z,1.9
2019-04-14T04:17:27.502Z,1.9
2019-04-14T04:18:19.798Z,1.8
2019-04-14T04:19:13.895Z,1.9
2019-04-14T04:20:06.709Z,1.8
2019-04-14T04:20:58.724Z,1.8
2019-04-14T04:21:50.815Z,1.8
2019-04-14T04:22:41.797Z,1.8
2019-04-14T04:23:33.476Z,1.9
2019-04-14T04:24:27.185Z,1.9
2019-04-14T04:25:18.769Z,1.9
2019-04-14T04:26:10.415Z,1.9
2019-04-14T04:27:02.297Z,1.9
2019-04-14T04:27:53.418Z,1.8
2019-04-14T04:28:45.058Z,1.9
2019-04-14T04:29:36.015Z,1.9
2019-04-14T04:30:27.589Z,1.9
2019-04-14T04:31:18.531Z,1.9
2019-04-14T04:32:09.943Z,1.9
2019-04-14T04:33:00.880Z,1.9
2019-04-14T04:33:52.261Z,1.9
2019-04-14T04:34:44.464Z,1.9
2019-04-14T04:35:35.405Z,1.9
2019-04-14T04:36:27.001Z,1.9
2019-04-14T04:37:17.926Z,1.9
2019-04-14T04:38:09.493Z,1.9
2019-04-14T04:39:01.695Z,1.9
2019-04-14T04:39:53.901Z,1.9
2019-04-14T04:40:46.033Z,1.9
2019-04-14T04:41:37.024Z,1.9
2019-04-14T04:42:28.668Z,1.9
2019-04-14T04:43:19.624Z,1.9
2019-04-14T04:44:11.568Z,1.9
2019-04-14T04:45:03.840Z,1.9
2019-04-14T04:45:55.866Z,1.9
2019-04-14T04:46:46.832Z,2
2019-04-14T04:47:38.346Z,2.1
2019-04-14T04:48:29.257Z,2.1
2019-04-14T04:49:22.893Z,2.1
2019-04-14T04:50:15.259Z,2.1
2019-04-14T04:51:07.099Z,2.1
2019-04-14T04:51:58.078Z,2.1
2019-04-14T04:52:49.629Z,2.1
2019-04-14T04:53:40.569Z,2.1
2019-04-14T04:54:32.072Z,2.1
2019-04-14T04:55:24.090Z,2.1
2019-04-14T04:56:15.029Z,2.1
2019-04-14T04:57:06.757Z,2.1
2019-04-14T04:57:57.707Z,2.1
2019-04-14T04:58:48.577Z,2.1
2019-04-14T04:59:39.475Z,2.1
2019-04-14T05:00:30.928Z,2.1
2019-04-14T05:01:23.110Z,2.1
2019-04-14T05:02:14.032Z,2.1
2019-04-14T05:03:05.715Z,2.1
2019-04-14T05:03:57.868Z,2.1
2019-04-14T05:04:48.834Z,2.1
2019-04-14T05:05:40.542Z,2.1
2019-04-14T05:06:31.530Z,2.1
2019-04-14T05:07:23.100Z,2.1
2019-04-14T05:08:15.069Z,2.1
2019-04-14T05:09:06.036Z,2.1
2019-04-14T05:09:57.735Z,2.1
2019-04-14T05:10:48.719Z,2.1
2019-04-14T05:11:40.397Z,2.1
2019-04-14T05:12:31.315Z,2.1
2019-04-14T05:13:22.647Z,2.1
2019-04-14T05:14:13.582Z,2.1
2019-04-14T05:15:05.302Z,2.1
2019-04-14T05:15:57.394Z,2.1
2019-04-14T05:16:48.568Z,2.1
2019-04-14T05:17:39.481Z,2.1
2019-04-14T05:18:31.290Z,2.1
2019-04-14T05:19:28.520Z,2.1
2019-04-14T05:20:18.149Z,2.1
2019-04-14T05:21:10.261Z,2.1
2019-04-14T05:22:01.282Z,2.1
2019-04-14T05:22:52.920Z,2.1
2019-04-14T05:23:43.871Z,2.1
2019-04-14T05:24:35.336Z,2
2019-04-14T05:25:27.477Z,2.1
2019-04-14T05:26:18.448Z,2
2019-04-14T05:27:09.996Z,2
2019-04-14T05:28:00.924Z,2
2019-04-14T05:28:52.732Z,2.1
2019-04-14T05:29:43.671Z,2.1
2019-04-14T05:30:34.979Z,2
2019-04-14T05:31:27.692Z,2.1
2019-04-14T05:32:19.859Z,2.1
2019-04-14T05:33:11.971Z,2.1
2019-04-14T05:34:02.963Z,2.1
2019-04-14T05:34:54.340Z,2.1
2019-04-14T05:35:45.279Z,2.1
2019-04-14T05:36:36.725Z,2.1
2019-04-14T05:37:27.646Z,2.1
2019-04-14T05:38:19.035Z,2.1
2019-04-14T05:39:11.284Z,2.1
2019-04-14T05:40:02.252Z,2.2
2019-04-14T05:40:53.984Z,2.2
2019-04-14T05:41:56.621Z,2.2
2019-04-14T05:42:40.821Z,2.2
2019-04-14T05:43:40.310Z,2.2
2019-04-14T05:44:27.626Z,2.2
2019-04-14T05:45:19.734Z,2.2
2019-04-14T05:46:11.957Z,2.2
2019-04-14T05:47:02.961Z,2.2
2019-04-14T05:47:54.341Z,2.2
2019-04-14T05:48:45.273Z,2.2
2019-04-14T05:49:42.249Z,2.3
2019-04-14T05:50:31.999Z,2.3
2019-04-14T05:51:23.559Z,2.3
2019-04-14T05:52:16.331Z,2.4
2019-04-14T05:53:08.546Z,2.4
2019-04-14T05:54:05.558Z,2.5
2019-04-14T05:54:56.511Z,2.5
2019-04-14T05:55:48.174Z,2.6
2019-04-14T05:56:40.442Z,2.6
2019-04-14T05:57:32.625Z,2.6
2019-04-14T05:58:23.587Z,2.7
2019-04-14T05:59:15.541Z,2.7
2019-04-14T06:00:06.495Z,2.7
2019-04-14T06:00:57.971Z,2.7
2019-04-14T06:01:48.915Z,2.8
2019-04-14T06:02:39.987Z,2.8
2019-04-14T06:03:32.040Z,2.8
2019-04-14T06:04:24.231Z,2.9
2019-04-14T06:05:16.470Z,2.9
2019-04-14T06:06:07.451Z,2.9
2019-04-14T06:06:58.318Z,2.9
2019-04-14T06:07:49.203Z,2.9
2019-04-14T06:08:40.084Z,2.9
2019-04-14T06:09:31.096Z,2.9
2019-04-14T06:10:21.977Z,2.9
2019-04-14T06:11:12.875Z,2.9
2019-04-14T06:12:03.749Z,2.9
2019-04-14T06:12:54.624Z,2.9
2019-04-14T06:13:45.504Z,2.9
2019-04-14T06:14:36.377Z,2.9
2019-04-14T06:15:27.248Z,2.9
2019-04-14T06:16:18.146Z,2.9
2019-04-14T06:17:09.019Z,2.9
2019-04-14T06:17:59.943Z,2.9
2019-04-14T06:18:50.816Z,2.9
2019-04-14T06:19:41.698Z,2.9
2019-04-14T06:20:32.574Z,2.9
2019-04-14T06:21:23.470Z,2.9
2019-04-14T06:22:14.341Z,3
2019-04-14T06:23:05.211Z,3.1
2019-04-14T06:23:56.078Z,3.1
2019-04-14T06:24:46.947Z,3.1
2019-04-14T06:25:37.824Z,3.2
2019-04-14T06:26:28.791Z,3.2
2019-04-14T06:27:19.717Z,3.3
2019-04-14T06:28:10.588Z,3.4
2019-04-14T06:29:01.453Z,3.4
2019-04-14T06:29:52.322Z,3.5
2019-04-14T06:30:43.193Z,3.5
2019-04-14T06:31:34.092Z,3.5
2019-04-14T06:32:24.966Z,3.5
2019-04-14T06:33:15.836Z,3.6
2019-04-14T06:34:06.709Z,3.6
2019-04-14T06:34:57.580Z,3.6
2019-04-14T06:35:48.446Z,3.7
2019-04-14T06:36:39.343Z,3.7
2019-04-14T06:37:30.212Z,3.7
2019-04-14T06:38:21.080Z,3.7
2019-04-14T06:39:11.949Z,3.7
2019-04-14T06:40:02.814Z,3.7
2019-04-14T06:40:53.689Z,3.7
2019-04-14T06:41:44.588Z,3.7
2019-04-14T06:42:35.458Z,3.7
2019-04-14T06:43:26.323Z,3.8
2019-04-14T06:44:17.194Z,3.8
2019-04-14T06:45:08.059Z,3.9
2019-04-14T06:45:58.939Z,3.9
2019-04-14T06:46:49.832Z,4
2019-04-14T06:47:40.698Z,4
2019-04-14T06:48:31.565Z,4.1
2019-04-14T06:49:22.441Z,4.1
2019-04-14T06:50:13.309Z,4.2
2019-04-14T06:51:04.184Z,4.3
2019-04-14T06:51:55.081Z,4.3
2019-04-14T06:52:45.953Z,4.4
2019-04-14T06:53:36.819Z,4.6
2019-04-14T06:54:27.688Z,4.6
2019-04-14T06:55:18.557Z,4.7
2019-04-14T06:56:09.431Z,4.7
2019-04-14T06:57:00.336Z,4.7
2019-04-14T06:57:51.215Z,4.7
2019-04-14T06:58:42.083Z,4.7
2019-04-14T06:59:32.957Z,4.7
2019-04-14T07:00:23.825Z,4.7
2019-04-14T07:01:14.701Z,4.7
2019-04-14T07:02:05.599Z,4.7
2019-04-14T07:02:56.464Z,4.7
2019-04-14T07:03:47.336Z,4.7
2019-04-14T07:04:38.205Z,4.7
2019-04-14T07:05:29.076Z,4.7
2019-04-14T07:06:19.948Z,4.7
2019-04-14T07:07:10.845Z,4.7
2019-04-14T07:08:01.720Z,4.7
2019-04-14T07:08:52.599Z,4.7
2019-04-14T07:09:43.473Z,4.7
2019-04-14T07:10:34.391Z,4.7
2019-04-14T07:11:25.267Z,4.7
2019-04-14T07:12:16.352Z,4.7
2019-04-14T07:13:07.243Z,4.7
2019-04-14T07:13:58.125Z,4.7
2019-04-14T07:14:48.995Z,4.7
2019-04-14T07:15:39.860Z,4.7
2019-04-14T07:16:30.741Z,4.7
2019-04-14T07:17:21.640Z,4.7
2019-04-14T07:18:12.517Z,4.7
2019-04-14T07:19:03.391Z,4.7
2019-04-14T07:20:01.643Z,4.7
2019-04-14T07:20:50.065Z,4.7
2019-04-14T07:21:40.938Z,4.7
2019-04-14T07:22:31.838Z,4.7
2019-04-14T07:23:22.707Z,4.7
2019-04-14T07:24:13.580Z,4.7
2019-04-14T07:25:04.464Z,4.7
2019-04-14T07:25:55.337Z,4.7
2019-04-14T07:26:46.209Z,4.7
2019-04-14T07:27:37.103Z,4.7
2019-04-14T07:28:27.995Z,4.7
2019-04-14T07:29:18.869Z,4.7
2019-04-14T07:30:09.747Z,4.7
2019-04-14T07:31:00.615Z,4.7
2019-04-14T07:31:51.480Z,4.8
2019-04-14T07:32:42.381Z,4.8
2019-04-14T07:33:33.244Z,4.8
2019-04-14T07:34:24.115Z,4.8
2019-04-14T07:35:14.981Z,4.8
2019-04-14T07:36:05.847Z,4.8
2019-04-14T07:36:56.718Z,4.8
2019-04-14T07:37:47.625Z,4.8
2019-04-14T07:38:38.491Z,4.8
2019-04-14T07:39:29.358Z,4.8
2019-04-14T07:40:20.234Z,4.8
2019-04-14T07:41:11.098Z,4.8
2019-04-14T07:42:01.966Z,4.8
2019-04-14T07:42:52.869Z,4.8
2019-04-14T07:43:43.738Z,4.9
2019-04-14T07:44:34.607Z,4.8
2019-04-14T07:45:25.475Z,4.9
2019-04-14T07:46:16.342Z,4.9
2019-04-14T07:47:07.213Z,4.9
2019-04-14T07:47:58.119Z,4.9
2019-04-14T07:48:48.998Z,4.9
2019-04-14T07:49:39.870Z,4.9
2019-04-14T07:50:30.751Z,4.9
2019-04-14T07:51:21.625Z,4.9
2019-04-14T07:52:12.498Z,4.9
2019-04-14T07:53:03.394Z,4.9
2019-04-14T07:53:54.299Z,4.9
2019-04-14T07:54:45.206Z,4.9
2019-04-14T07:55:36.076Z,4.9
2019-04-14T07:56:26.953Z,4.9
2019-04-14T07:57:17.826Z,4.9
2019-04-14T07:58:08.790Z,4.9
2019-04-14T07:58:59.661Z,4.9
2019-04-14T07:59:50.578Z,4.9
2019-04-14T08:00:41.444Z,4.9
2019-04-14T08:01:32.309Z,4.9
2019-04-14T08:02:23.172Z,4.9
2019-04-14T08:03:14.063Z,4.9
2019-04-14T08:04:04.933Z,4.9
2019-04-14T08:04:55.801Z,5
2019-04-14T08:05:46.665Z,5
2019-04-14T08:06:38.442Z,5
2019-04-14T08:07:29.438Z,5.1
2019-04-14T08:08:20.341Z,5.1
2019-04-14T08:09:11.210Z,5.1
2019-04-14T08:10:02.083Z,5.1
2019-04-14T08:10:52.955Z,5.1
2019-04-14T08:11:43.819Z,5.1
2019-04-14T08:12:35.250Z,5.1
2019-04-14T08:13:26.293Z,5.1
2019-04-14T08:14:17.163Z,5.1
2019-04-14T08:15:08.103Z,5.1
2019-04-14T08:15:58.986Z,5.1
2019-04-14T08:16:49.869Z,5.1
2019-04-14T08:17:43.493Z,5.1
2019-04-14T08:18:34.599Z,5.1
2019-04-14T08:19:25.468Z,5.1
2019-04-14T08:20:26.672Z,5.1
2019-04-14T08:21:12.154Z,5.1
2019-04-14T08:22:03.024Z,5.1
2019-04-14T08:22:53.896Z,5.1
2019-04-14T08:23:44.866Z,5.2
2019-04-14T08:24:35.740Z,5.2
2019-04-14T08:25:26.611Z,5.2
2019-04-14T08:26:17.474Z,5.2
2019-04-14T08:27:08.343Z,5.2
2019-04-14T08:27:59.210Z,5.2
2019-04-14T08:28:50.080Z,5.2
2019-04-14T08:29:40.971Z,5.2
2019-04-14T08:30:31.841Z,5.2
2019-04-14T08:31:22.715Z,5.2
2019-04-14T08:32:13.585Z,5.3
2019-04-14T08:33:04.450Z,5.3
2019-04-14T08:33:55.320Z,5.3
2019-04-14T08:34:46.227Z,5.3
2019-04-14T08:35:37.170Z,5.3
2019-04-14T08:36:28.092Z,5.3
2019-04-14T08:37:18.956Z,5.3
2019-04-14T08:38:09.824Z,5.3
2019-04-14T08:39:00.687Z,5.3
2019-04-14T08:39:51.601Z,5.4
2019-04-14T08:40:43.467Z,5.4
2019-04-14T08:41:37.445Z,5.4
2019-04-14T08:42:28.317Z,5.4
2019-04-14T08:43:19.192Z,5.4
2019-04-14T08:44:10.089Z,5.4
2019-04-14T08:45:00.962Z,5.4
2019-04-14T08:45:51.838Z,5.4
2019-04-14T08:46:42.709Z,5.4
2019-04-14T08:47:33.577Z,5.4
2019-04-14T08:48:24.446Z,5.4
2019-04-14T08:49:15.400Z,5.4
2019-04-14T08:50:06.301Z,5.4
2019-04-14T08:50:57.172Z,5.4
2019-04-14T08:51:48.038Z,5.4
2019-04-14T08:52:38.909Z,5.4
2019-04-14T08:53:29.776Z,5.4
2019-04-14T08:54:20.645Z,5.4
2019-04-14T08:55:11.541Z,5.4
2019-04-14T08:56:02.419Z,5.4
2019-04-14T08:56:53.396Z,5.5
2019-04-14T08:57:44.266Z,5.5
2019-04-14T08:58:35.135Z,5.5
2019-04-14T08:59:26.037Z,5.5
2019-04-14T09:00:16.905Z,5.5
2019-04-14T09:01:07.865Z,5.5
2019-04-14T09:01:58.756Z,5.5
2019-04-14T09:02:49.648Z,5.5
2019-04-14T09:03:40.577Z,5.6
2019-04-14T09:04:31.492Z,5.6
2019-04-14T09:05:22.382Z,5.6
2019-04-14T09:06:13.248Z,5.6
2019-04-14T09:07:04.116Z,5.6
2019-04-14T09:07:54.982Z,5.6
2019-04-14T09:08:45.850Z,5.6
2019-04-14T09:09:36.757Z,5.6
2019-04-14T09:10:27.632Z,5.6
2019-04-14T09:11:18.525Z,5.6
2019-04-14T09:12:15.609Z,5.6
2019-04-14T09:13:05.220Z,5.6
2019-04-14T09:13:56.085Z,5.6
2019-04-14T09:14:56.608Z,5.6
2019-04-14T09:15:42.786Z,5.6
2019-04-14T09:16:33.647Z,5.6
2019-04-14T09:17:24.520Z,5.6
2019-04-14T09:18:15.388Z,5.6
2019-04-14T09:19:07.705Z,5.6
2019-04-14T09:19:58.889Z,5.7
2019-04-14T09:20:52.311Z,5.7
2019-04-14T09:21:43.271Z,5.7
2019-04-14T09:22:34.136Z,5.7
2019-04-14T09:23:25.001Z,5.7
2019-04-14T09:24:15.866Z,5.7
2019-04-14T09:25:06.764Z,5.7
2019-04-14T09:25:57.634Z,5.7
2019-04-14T09:26:48.505Z,5.7
2019-04-14T09:27:39.374Z,5.7
2019-04-14T09:28:30.241Z,5.7
2019-04-14T09:29:21.109Z,5.7
2019-04-14T09:30:12.014Z,5.7
2019-04-14T09:31:02.878Z,5.7
2019-04-14T09:31:58.761Z,5.7
2019-04-14T09:32:49.753Z,5.7
2019-04-14T09:33:40.646Z,5.7
2019-04-14T09:34:31.634Z,5.7
2019-04-14T09:35:22.545Z,5.7
2019-04-14T09:36:13.412Z,5.7
2019-04-14T09:37:04.279Z,5.7
2019-04-14T09:37:55.151Z,5.7
2019-04-14T09:38:46.169Z,5.7
2019-04-14T09:39:37.036Z,5.7
2019-04-14T09:40:28.049Z,5.7
2019-04-14T09:41:18.965Z,5.7
2019-04-14T09:42:09.834Z,5.7
2019-04-14T09:43:00.704Z,5.8
2019-04-14T09:43:51.580Z,5.7
2019-04-14T09:44:42.444Z,5.8
2019-04-14T09:45:33.337Z,5.8
2019-04-14T09:46:24.242Z,5.8
2019-04-14T09:47:15.128Z,5.8
2019-04-14T09:48:05.994Z,5.8
2019-04-14T09:48:56.858Z,5.8
2019-04-14T09:49:47.730Z,5.8
2019-04-14T09:50:38.632Z,5.8
2019-04-14T09:51:29.493Z,5.8
2019-04-14T09:52:20.358Z,5.8
2019-04-14T09:53:11.227Z,5.8
2019-04-14T09:54:02.092Z,5.8
2019-04-14T09:54:52.957Z,5.8
2019-04-14T09:55:43.871Z,5.8
2019-04-14T09:56:34.736Z,5.8
2019-04-14T09:57:25.604Z,5.8
2019-04-14T09:58:16.475Z,5.8
2019-04-14T09:59:07.340Z,5.8
2019-04-14T09:59:58.239Z,5.8
2019-04-14T10:00:49.197Z,5.8
2019-04-14T10:01:40.134Z,5.8
2019-04-14T10:02:31.020Z,5.8
2019-04-14T10:03:21.888Z,5.8
2019-04-14T10:04:12.753Z,5.8
2019-04-14T10:05:03.620Z,5.8
2019-04-14T10:05:54.534Z,5.8
2019-04-14T10:06:45.490Z,5.9
2019-04-14T10:07:36.422Z,5.9
2019-04-14T10:08:27.329Z,5.9
2019-04-14T10:09:18.196Z,5.9
2019-04-14T10:10:09.083Z,5.9
2019-04-14T10:11:00.019Z,5.9
2019-04-14T10:11:53.577Z,5.9
2019-04-14T10:12:46.726Z,5.9
2019-04-14T10:13:37.603Z,5.9
2019-04-14T10:14:28.503Z,5.9
2019-04-14T10:15:19.428Z,5.9
2019-04-14T10:16:10.354Z,5.9
2019-04-14T10:17:01.711Z,5.9
2019-04-14T10:17:52.614Z,5.9
2019-04-14T10:18:43.478Z,5.9
2019-04-14T10:19:34.348Z,5.9
2019-04-14T10:20:25.320Z,5.9
2019-04-14T10:21:17.461Z,5.9
2019-04-14T10:22:08.777Z,5.9
2019-04-14T10:22:59.722Z,5.9
2019-04-14T10:23:50.592Z,5.9
2019-04-14T10:24:41.486Z,5.9
2019-04-14T10:25:32.378Z,5.9
2019-04-14T10:26:23.273Z,5.9
2019-04-14T10:27:14.147Z,6
2019-04-14T10:28:05.014Z,6
2019-04-14T10:28:55.893Z,6
2019-04-14T10:29:46.762Z,6
2019-04-14T10:30:37.626Z,6
2019-04-14T10:31:28.569Z,6
2019-04-14T10:32:19.439Z,6
2019-04-14T10:33:10.304Z,6
2019-04-14T10:34:01.170Z,6
2019-04-14T10:34:52.037Z,6
2019-04-14T10:35:42.919Z,6
2019-04-14T10:36:33.796Z,6
2019-04-14T10:37:24.694Z,6.1
2019-04-14T10:38:15.614Z,6
2019-04-14T10:39:06.496Z,6
2019-04-14T10:39:57.383Z,6.1
2019-04-14T10:40:48.289Z,6.1
2019-04-14T10:41:39.165Z,6
2019-04-14T10:42:30.061Z,6.1
2019-04-14T10:43:20.943Z,6.1
2019-04-14T10:44:12.075Z,6.1
2019-04-14T10:45:02.952Z,6.1
2019-04-14T10:45:53.818Z,6.1
2019-04-14T10:46:44.761Z,6.1
2019-04-14T10:47:35.734Z,6.1
2019-04-14T10:48:26.678Z,6.1
2019-04-14T10:49:17.605Z,6.1
2019-04-14T10:50:08.524Z,6.1
2019-04-14T10:50:59.391Z,6.1
2019-04-14T10:51:50.259Z,6.1
2019-04-14T10:52:41.159Z,6.1
2019-04-14T10:53:32.026Z,6.1
2019-04-14T10:54:22.897Z,6.1
2019-04-14T10:55:13.765Z,6.1
2019-04-14T10:56:04.641Z,6.1
2019-04-14T10:56:55.574Z,6.1
2019-04-14T10:57:46.500Z,6.1
2019-04-14T10:58:37.373Z,6.1
2019-04-14T10:59:28.239Z,6.1
2019-04-14T11:00:19.113Z,6.1
2019-04-14T11:01:09.980Z,6.1
2019-04-14T11:02:00.954Z,6.1
2019-04-14T11:02:51.949Z,6.1
2019-04-14T11:03:46.276Z,6.1
2019-04-14T11:04:37.149Z,6.1
2019-04-14T11:05:28.022Z,6.1
2019-04-14T11:06:18.957Z,6.1
2019-04-14T11:07:09.828Z,6.1
2019-04-14T11:08:00.738Z,6.1
2019-04-14T11:08:51.608Z,6.1
2019-04-14T11:09:42.479Z,6.1
2019-04-14T11:10:33.356Z,6
2019-04-14T11:11:24.226Z,6.1
2019-04-14T11:12:15.093Z,6.1
2019-04-14T11:13:06.002Z,6.1
2019-04-14T11:13:56.865Z,6.1
2019-04-14T11:14:47.730Z,6.1
2019-04-14T11:15:38.594Z,6.1
2019-04-14T11:16:29.461Z,6.1
2019-04-14T11:17:20.330Z,6.1
2019-04-14T11:18:11.229Z,6.1
2019-04-14T11:19:02.093Z,6.1
2019-04-14T11:19:52.964Z,6.1
2019-04-14T11:20:43.861Z,6.1
2019-04-14T11:21:42.197Z,6.1
2019-04-14T11:22:30.561Z,6.1
2019-04-14T11:23:21.453Z,6.1
2019-04-14T11:24:12.356Z,6.1
2019-04-14T11:25:03.261Z,6.1
2019-04-14T11:25:54.128Z,6.1
2019-04-14T11:26:45.023Z,6.1
2019-04-14T11:27:35.945Z,6.1
2019-04-14T11:28:26.851Z,6.1
2019-04-14T11:29:17.717Z,6.1
2019-04-14T11:30:08.593Z,6.1
2019-04-14T11:30:59.756Z,6.1
2019-04-14T11:31:50.622Z,6.1
2019-04-14T11:32:41.491Z,6.1
2019-04-14T11:33:32.385Z,6.1
2019-04-14T11:34:23.254Z,6.1
2019-04-14T11:35:16.423Z,6.1
2019-04-14T11:36:07.498Z,6.1
2019-04-14T11:36:58.387Z,6.1
2019-04-14T11:37:49.273Z,6.1
2019-04-14T11:38:40.254Z,6.1
2019-04-14T11:39:31.126Z,6.1
2019-04-14T11:40:21.994Z,6.1
2019-04-14T11:41:12.867Z,6.1
2019-04-14T11:42:03.733Z,6.1
2019-04-14T11:42:54.612Z,6.1
2019-04-14T11:43:45.641Z,6.1
2019-04-14T11:44:36.549Z,6.1
2019-04-14T11:45:27.425Z,6.1
2019-04-14T11:46:18.292Z,6.1
2019-04-14T11:47:09.162Z,6.1
2019-04-14T11:48:00.046Z,6.1
2019-04-14T11:48:50.959Z,6.1
2019-04-14T11:49:41.826Z,6.1
2019-04-14T11:50:32.693Z,6.1
2019-04-14T11:51:23.571Z,6.1
2019-04-14T11:52:14.438Z,6.1
2019-04-14T11:53:05.305Z,6.1
2019-04-14T11:53:56.201Z,6.1
2019-04-14T11:54:47.073Z,6.1
2019-04-14T11:55:37.946Z,6.1
2019-04-14T11:56:28.809Z,6.1
2019-04-14T11:57:19.700Z,6.1
2019-04-14T11:58:10.606Z,6.2
2019-04-14T11:59:02.499Z,6.2
2019-04-14T11:59:53.402Z,6.2
2019-04-14T12:00:44.277Z,6.2
2019-04-14T12:01:35.149Z,6.2
2019-04-14T12:02:26.043Z,6.2
2019-04-14T12:03:16.926Z,6.2
2019-04-14T12:04:07.820Z,6.2
2019-04-14T12:04:58.691Z,6.2
2019-04-14T12:05:49.568Z,6.2
2019-04-14T12:06:40.559Z,6.2
2019-04-14T12:07:31.473Z,6.2
2019-04-14T12:08:22.357Z,6.2
2019-04-14T12:09:13.255Z,6.2
2019-04-14T12:10:04.128Z,6.2
2019-04-14T12:10:55.000Z,6.2
2019-04-14T12:11:45.869Z,6.2
2019-04-14T12:12:36.745Z,6.2
2019-04-14T12:13:27.617Z,6.2
2019-04-14T12:14:18.507Z,6.2
2019-04-14T12:15:15.813Z,6.2
2019-04-14T12:16:05.191Z,6.2
2019-04-14T12:16:56.062Z,6.2
2019-04-14T12:17:46.936Z,6.2
2019-04-14T12:18:37.816Z,6.2
2019-04-14T12:19:28.707Z,6.2
2019-04-14T12:20:19.581Z,6.2